Time;durP1;ratioP1;P1;durP2;ratioP2;P2;SDS_P1;SDS_P2;PMS_P1;PMS_P2;Temp;Humidity;BMP_temperature;BMP_pressure;BME280_temperature;BME280_humidity;BME280_pressure;Samples;Min_cycle;Max_cycle;Signal;HPM_P1;HPM_P2
2021/12/18 00:01:58;;;;;;;5.10;1.85;;;7.00;99.90;;;;;;2108858;67;20392;-71
2021/12/18 00:04:41;;;;;;;6.10;1.73;;;7.00;99.90;;;;;;2112640;67;20207;-71
2021/12/18 00:07:22;;;;;;;8.75;1.90;;;7.00;99.90;;;;;;2104441;67;20319;-71
2021/12/18 00:10:06;;;;;;;6.70;2.30;;;6.90;99.90;;;;;;2098164;68;20263;-70
2021/12/18 00:12:49;;;;;;;6.50;2.22;;;6.90;99.90;;;;;;2111832;67;20280;-70
2021/12/18 00:15:34;;;;;;;5.60;2.38;;;6.90;99.90;;;;;;2114688;67;20793;-70
2021/12/18 00:18:16;;;;;;;10.75;2.70;;;6.60;99.90;;;;;;2124663;67;20208;-70
2021/12/18 00:20:59;;;;;;;6.28;2.47;;;6.90;99.90;;;;;;2103639;67;20289;-70
2021/12/18 00:23:41;;;;;;;7.00;2.50;;;6.90;99.90;;;;;;2112931;67;20201;-70
2021/12/18 00:26:23;;;;;;;6.70;1.98;;;6.90;99.90;;;;;;2120294;67;20180;-70
2021/12/18 00:29:06;;;;;;;4.30;1.95;;;6.80;99.90;;;;;;2118873;67;20185;-69
2021/12/18 00:31:51;;;;;;;3.60;1.45;;;6.90;99.90;;;;;;2113427;67;20203;-71
2021/12/18 00:34:34;;;;;;;3.67;2.20;;;6.90;99.90;;;;;;2114287;67;20355;-71
2021/12/18 00:37:15;;;;;;;5.22;2.35;;;6.90;99.90;;;;;;2121678;67;20333;-71
2021/12/18 00:39:59;;;;;;;4.63;1.60;;;7.00;99.90;;;;;;2113021;67;20669;-71
2021/12/18 00:42:56;;;;;;;4.65;1.77;;;6.90;99.90;;;;;;2133237;67;20643;-70
2021/12/18 00:45:41;;;;;;;9.30;2.60;;;6.80;99.90;;;;;;2124114;67;20417;-70
2021/12/18 00:48:25;;;;;;;9.27;2.55;;;6.80;99.90;;;;;;2131357;67;20291;-70
2021/12/18 00:51:09;;;;;;;14.18;2.45;;;6.80;99.90;;;;;;2134925;67;20371;-71
2021/12/18 00:53:51;;;;;;;8.55;2.20;;;6.80;99.90;;;;;;2128519;67;20204;-71
2021/12/18 00:56:33;;;;;;;8.43;3.25;;;6.80;99.90;;;;;;2130106;67;20328;-70
2021/12/18 00:59:12;;;;;;;15.40;4.55;;;6.80;99.90;;;;;;2130708;67;20188;-71
2021/12/18 01:01:51;;;;;;;10.95;2.92;;;6.70;99.90;;;;;;2112838;67;20200;-71
2021/12/18 01:04:27;;;;;;;6.22;2.47;;;6.80;99.90;;;;;;2123277;67;20273;-71
2021/12/18 01:07:17;;;;;;;6.60;2.88;;;6.70;99.90;;;;;;2121788;67;20210;-71
2021/12/18 01:12:47;;;;;;;11.82;2.75;;;6.70;99.90;;;;;;2134346;66;20735;-70
2021/12/18 01:15:46;;;;;;;6.28;1.90;;;6.70;99.90;;;;;;2126380;67;20674;-71
2021/12/18 01:24:56;;;;;;;6.90;2.40;;;6.70;99.90;;;;;;2147347;66;20695;-70
2021/12/18 01:27:36;;;;;;;6.03;1.92;;;6.70;99.90;;;;;;2169710;65;20322;-70
2021/12/18 01:30:15;;;;;;;5.07;1.98;;;6.70;99.90;;;;;;2176748;65;20628;-72
2021/12/18 01:32:52;;;;;;;10.55;2.20;;;6.70;99.90;;;;;;2183425;65;20656;-71
2021/12/18 01:35:29;;;;;;;9.75;2.67;;;6.70;99.90;;;;;;2194643;65;20801;-71
2021/12/18 01:38:21;;;;;;;4.70;1.88;;;6.80;99.90;;;;;;2178614;65;20175;-69
2021/12/18 01:41:14;;;;;;;5.78;1.88;;;6.70;99.90;;;;;;2187004;65;20195;-70
2021/12/18 01:51:09;;;;;;;4.65;1.95;;;6.70;99.90;;;;;;2180626;65;20190;-71
2021/12/18 01:52:40;;;;;;;5.25;1.98;;;6.70;99.90;;;;;;2184840;65;20234;-70
2021/12/18 01:55:18;;;;;;;8.68;2.95;;;6.70;99.90;;;;;;2194751;65;20190;-71
2021/12/18 01:58:11;;;;;;;7.43;2.53;;;6.70;99.90;;;;;;2190099;65;20615;-71
2021/12/18 02:00:56;;;;;;;13.90;3.40;;;6.70;99.90;;;;;;2183624;65;20320;-70
2021/12/18 02:03:39;;;;;;;8.93;3.58;;;6.70;99.90;;;;;;2190648;65;20222;-71
2021/12/18 02:06:21;;;;;;;10.80;3.50;;;6.70;99.90;;;;;;2190812;65;20761;-71
2021/12/18 02:09:04;;;;;;;12.13;4.00;;;6.80;99.90;;;;;;2176184;65;20586;-70
2021/12/18 02:11:46;;;;;;;8.88;3.08;;;6.70;99.90;;;;;;2174853;65;20235;-71
2021/12/18 02:23:15;;;;;;;3.05;1.30;;;6.80;99.90;;;;;;2140695;66;20303;-71
2021/12/18 02:25:57;;;;;;;3.35;0.90;;;6.70;99.90;;;;;;2132244;67;20183;-71
2021/12/18 02:28:43;;;;;;;2.25;1.10;;;6.70;99.90;;;;;;2116168;67;20351;-70
2021/12/18 02:31:24;;;;;;;5.78;1.38;;;6.80;99.90;;;;;;2103372;67;20332;-70
2021/12/18 02:34:13;;;;;;;8.93;1.67;;;6.80;99.90;;;;;;2089651;68;20215;-70
2021/12/18 02:37:02;;;;;;;1.65;1.17;;;6.90;99.90;;;;;;2086254;68;20325;-70
2021/12/18 02:42:43;;;;;;;4.63;1.30;;;6.70;99.90;;;;;;2093011;68;20648;-71
2021/12/18 02:45:26;;;;;;;7.70;1.70;;;6.70;99.90;;;;;;2098660;67;20359;-70
2021/12/18 02:48:08;;;;;;;4.70;1.20;;;6.70;99.90;;;;;;2094619;68;20404;-71
2021/12/18 02:50:49;;;;;;;3.10;1.42;;;6.70;99.90;;;;;;2080465;68;20238;-71
2021/12/18 02:53:31;;;;;;;7.35;1.50;;;6.70;99.90;;;;;;2093296;67;20350;-72
2021/12/18 02:56:14;;;;;;;4.10;1.55;;;6.70;99.90;;;;;;2104627;67;20241;-70
2021/12/18 02:59:07;;;;;;;2.58;1.10;;;6.70;99.90;;;;;;2111340;67;20789;-71
2021/12/18 03:01:49;;;;;;;5.20;1.70;;;6.70;99.90;;;;;;2102095;68;20191;-72
2021/12/18 03:04:34;;;;;;;7.20;1.83;;;6.70;99.90;;;;;;2098334;67;20446;-70
2021/12/18 03:07:21;;;;;;;4.00;1.50;;;6.70;99.90;;;;;;2132048;67;20296;-70
2021/12/18 03:24:55;;;;;;;5.15;1.77;;;6.70;99.90;;;;;;2123379;67;20201;-70
2021/12/18 03:27:37;;;;;;;3.65;1.60;;;6.70;99.90;;;;;;2115642;67;20270;-71
2021/12/18 03:30:20;;;;;;;3.90;1.40;;;6.80;99.90;;;;;;2113295;67;20164;-70
2021/12/18 03:33:02;;;;;;;2.38;1.42;;;6.70;99.90;;;;;;2117179;67;20282;-71
2021/12/18 03:35:45;;;;;;;7.72;1.80;;;6.70;99.90;;;;;;2124015;67;20223;-70
2021/12/18 03:38:26;;;;;;;8.25;1.67;;;6.70;99.90;;;;;;2107410;67;20209;-70
2021/12/18 03:41:09;;;;;;;6.93;2.00;;;6.70;99.90;;;;;;2110673;67;20237;-70
2021/12/18 03:43:54;;;;;;;7.47;1.88;;;6.70;99.90;;;;;;2110239;67;20299;-70
2021/12/18 03:46:35;;;;;;;4.82;1.45;;;6.70;99.90;;;;;;2103464;67;20457;-70
2021/12/18 03:49:17;;;;;;;8.30;1.48;;;6.60;99.90;;;;;;2104992;67;20346;-70
2021/12/18 03:52:01;;;;;;;3.72;2.08;;;6.70;99.90;;;;;;2104662;67;20185;-71
2021/12/18 03:54:43;;;;;;;5.03;1.67;;;6.60;99.90;;;;;;2106677;67;20200;-71
2021/12/18 03:57:25;;;;;;;4.32;1.80;;;6.70;99.90;;;;;;2124323;67;20349;-71
2021/12/18 04:00:09;;;;;;;5.22;1.83;;;6.70;99.90;;;;;;2134671;67;20317;-70
2021/12/18 04:02:51;;;;;;;5.22;1.92;;;6.70;99.90;;;;;;2131643;67;20340;-70
2021/12/18 04:05:33;;;;;;;7.28;2.58;;;6.70;99.90;;;;;;2139186;67;20339;-70
2021/12/18 04:08:16;;;;;;;4.97;2.20;;;6.70;99.90;;;;;;2149906;66;20337;-70
2021/12/18 04:11:00;;;;;;;5.72;2.63;;;6.80;99.90;;;;;;2138960;66;20666;-70
2021/12/18 04:13:45;;;;;;;7.00;2.40;;;6.70;99.90;;;;;;2138474;66;20298;-70
2021/12/18 04:16:28;;;;;;;6.75;2.47;;;6.70;99.90;;;;;;2138728;66;20229;-70
2021/12/18 04:19:09;;;;;;;7.65;2.80;;;6.80;99.90;;;;;;2138927;66;20190;-70
2021/12/18 04:21:52;;;;;;;7.47;3.15;;;6.80;99.90;;;;;;2131459;67;20398;-70
2021/12/18 04:24:33;;;;;;;5.75;2.53;;;6.80;99.90;;;;;;2131704;67;20332;-70
2021/12/18 04:27:16;;;;;;;6.63;2.97;;;6.80;99.90;;;;;;2145681;66;20250;-70
2021/12/18 04:29:58;;;;;;;7.15;3.00;;;6.80;99.90;;;;;;2138730;67;20271;-70
2021/12/18 04:32:40;;;;;;;8.05;3.17;;;6.80;99.90;;;;;;2134975;66;20850;-70
2021/12/18 04:35:24;;;;;;;6.13;2.75;;;6.80;99.90;;;;;;2135712;67;20497;-70
2021/12/18 04:38:06;;;;;;;9.05;3.88;;;6.90;99.90;;;;;;2124362;67;20169;-70
2021/12/18 04:40:49;;;;;;;6.38;3.85;;;6.90;99.90;;;;;;2119168;67;20422;-70
2021/12/18 04:43:31;;;;;;;8.25;3.22;;;6.90;99.90;;;;;;2133207;67;20203;-70
2021/12/18 04:46:12;;;;;;;14.07;4.30;;;6.90;99.90;;;;;;2124564;67;20180;-70
2021/12/18 04:48:54;;;;;;;10.70;3.83;;;6.90;99.90;;;;;;2125576;67;20303;-70
2021/12/18 04:51:35;;;;;;;10.60;4.60;;;6.90;99.90;;;;;;2131741;67;20790;-71
2021/12/18 04:54:17;;;;;;;9.48;4.00;;;7.00;99.90;;;;;;2117509;67;20393;-71
2021/12/18 04:56:58;;;;;;;9.55;4.28;;;7.00;99.90;;;;;;2123523;67;20309;-70
2021/12/18 04:59:43;;;;;;;9.93;4.20;;;7.20;99.90;;;;;;2131503;67;20661;-69
2021/12/18 05:02:36;;;;;;;;;;;7.00;99.90;;;;;;2138590;66;20693;-70
2021/12/18 05:05:18;;;;;;;11.95;4.65;;;7.00;99.90;;;;;;2161672;66;20066;-70
2021/12/18 05:08:00;;;;;;;11.55;4.93;;;7.00;99.90;;;;;;2152577;66;20293;-71
2021/12/18 05:10:42;;;;;;;9.13;4.60;;;7.10;99.90;;;;;;2145947;66;20347;-69
2021/12/18 05:13:25;;;;;;;11.27;3.92;;;7.10;99.90;;;;;;2139542;66;20772;-70
2021/12/18 05:16:10;;;;;;;18.85;5.88;;;7.60;99.90;;;;;;2142385;66;20206;-70
2021/12/18 05:18:52;;;;;;;11.25;4.28;;;7.10;99.90;;;;;;2132333;67;20176;-70
2021/12/18 05:21:33;;;;;;;15.85;5.78;;;7.10;99.90;;;;;;2131180;67;20587;-71
2021/12/18 05:24:15;;;;;;;14.10;4.80;;;7.20;99.90;;;;;;2118413;67;20396;-71
2021/12/18 05:26:56;;;;;;;13.00;6.10;;;7.20;99.90;;;;;;2105892;67;20338;-70
2021/12/18 05:29:38;;;;;;;18.42;6.80;;;7.30;99.90;;;;;;2110857;67;20177;-70
2021/12/18 05:32:20;;;;;;;13.73;5.90;;;7.30;99.90;;;;;;2096009;68;20529;-70
2021/12/18 05:35:03;;;;;;;14.88;5.57;;;7.30;99.90;;;;;;2093921;68;20194;-70
2021/12/18 05:37:50;;;;;;;14.90;5.65;;;7.40;99.90;;;;;;2110288;67;20213;-70
2021/12/18 05:40:37;;;;;;;15.20;6.00;;;7.40;99.90;;;;;;2107320;67;20337;-70
2021/12/18 05:43:22;;;;;;;12.70;4.85;;;8.10;99.90;;;;;;2121429;67;20277;-70
2021/12/18 05:46:05;;;;;;;11.85;5.63;;;7.50;99.90;;;;;;2113311;67;20346;-70
2021/12/18 05:48:49;;;;;;;;;;;7.50;99.90;;;;;;2111367;67;20281;-70
2021/12/18 05:51:34;;;;;;;16.77;6.38;;;7.50;99.90;;;;;;2109965;67;20134;-71
2021/12/18 05:54:16;;;;;;;14.15;6.10;;;7.60;99.90;;;;;;2111305;67;20181;-71
2021/12/18 05:56:59;;;;;;;14.68;6.13;;;7.60;99.90;;;;;;2107257;67;21224;-69
2021/12/18 05:59:44;;;;;;;11.93;6.05;;;7.60;99.90;;;;;;2132548;67;20204;-70
2021/12/18 06:02:27;;;;;;;12.00;5.72;;;7.60;99.90;;;;;;2132359;67;20274;-71
2021/12/18 06:05:15;;;;;;;12.90;5.55;;;7.60;99.90;;;;;;2123242;67;20296;-70
2021/12/18 06:08:02;;;;;;;13.10;5.90;;;7.70;99.90;;;;;;2114903;67;20379;-71
2021/12/18 06:10:45;;;;;;;17.38;6.95;;;7.70;99.90;;;;;;2112240;67;20193;-70
2021/12/18 06:13:29;;;;;;;16.27;6.18;;;7.70;99.90;;;;;;2128775;67;20367;-70
2021/12/18 06:16:13;;;;;;;19.77;7.32;;;7.70;99.90;;;;;;2133844;67;20231;-70
2021/12/18 06:18:57;;;;;;;10.30;5.68;;;7.80;99.90;;;;;;2125231;67;20337;-71
2021/12/18 06:21:39;;;;;;;11.70;5.47;;;7.80;99.90;;;;;;2124560;67;20351;-70
2021/12/18 06:24:21;;;;;;;15.32;6.50;;;7.80;99.90;;;;;;2125456;67;20548;-70
2021/12/18 06:27:03;;;;;;;12.95;5.90;;;7.80;99.90;;;;;;2126030;67;20251;-70
2021/12/18 06:29:47;;;;;;;14.90;6.45;;;7.80;99.90;;;;;;2118304;67;20341;-70
2021/12/18 06:32:28;;;;;;;11.77;5.53;;;7.90;99.90;;;;;;2132704;67;20292;-71
2021/12/18 06:35:11;;;;;;;10.40;5.32;;;7.90;99.90;;;;;;2141023;66;20259;-71
2021/12/18 06:37:55;;;;;;;12.68;5.65;;;8.00;99.90;;;;;;2153745;66;20206;-70
2021/12/18 06:40:38;;;;;;;12.40;4.72;;;7.90;99.90;;;;;;2160947;66;20342;-71
2021/12/18 06:43:23;;;;;;;11.43;4.80;;;7.90;99.90;;;;;;2146579;66;20657;-70
2021/12/18 06:46:06;;;;;;;10.38;4.40;;;7.90;99.90;;;;;;2139887;66;20303;-70
2021/12/18 06:48:51;;;;;;;8.85;4.60;;;7.80;99.90;;;;;;2127359;66;20219;-71
2021/12/18 06:51:34;;;;;;;9.85;4.35;;;8.00;99.90;;;;;;2132412;67;20837;-70
2021/12/18 06:54:19;;;;;;;8.88;3.63;;;8.00;99.90;;;;;;2148608;66;20272;-70
2021/12/18 06:57:02;;;;;;;9.75;3.65;;;8.00;99.90;;;;;;2146930;66;20178;-70
2021/12/18 06:59:43;;;;;;;8.60;3.33;;;8.00;99.90;;;;;;2146326;66;20752;-70
2021/12/18 07:02:25;;;;;;;8.05;2.88;;;8.00;99.90;;;;;;2145654;66;20233;-70
2021/12/18 07:05:10;;;;;;;8.02;2.95;;;8.00;99.90;;;;;;2124952;67;20272;-71
2021/12/18 07:07:56;;;;;;;6.20;3.20;;;8.10;99.90;;;;;;2125195;67;20302;-70
2021/12/18 07:10:40;;;;;;;7.20;2.80;;;8.10;99.90;;;;;;2133835;67;20699;-70
2021/12/18 07:13:42;;;;;;;5.35;2.70;;;8.10;99.90;;;;;;2120457;67;20218;-71
2021/12/18 07:16:24;;;;;;;9.02;3.17;;;8.10;99.90;;;;;;2128506;67;20180;-71
2021/12/18 07:19:05;;;;;;;5.03;3.05;;;8.10;99.90;;;;;;2129834;67;20249;-71
2021/12/18 07:21:47;;;;;;;7.88;4.07;;;8.20;99.90;;;;;;2126605;67;20237;-71
2021/12/18 07:24:29;;;;;;;6.30;3.03;;;8.20;99.90;;;;;;2139490;67;20225;-71
2021/12/18 07:27:10;;;;;;;7.82;3.67;;;8.20;99.90;;;;;;2125460;67;20207;-71
2021/12/18 07:29:52;;;;;;;7.60;3.65;;;8.40;99.90;;;;;;2121040;66;20201;-72
2021/12/18 07:32:34;;;;;;;8.23;3.42;;;8.30;99.90;;;;;;2130100;67;20333;-72
2021/12/18 07:35:17;;;;;;;6.82;2.92;;;8.30;99.90;;;;;;2128566;67;20838;-70
2021/12/18 07:38:00;;;;;;;11.30;3.80;;;8.30;99.90;;;;;;2124802;67;20328;-71
2021/12/18 07:40:42;;;;;;;10.35;3.15;;;8.30;99.90;;;;;;2114987;67;20710;-70
2021/12/18 07:43:25;;;;;;;6.03;2.55;;;8.40;99.90;;;;;;2099673;68;20414;-70
2021/12/18 07:46:10;;;;;;;5.53;2.95;;;8.30;99.90;;;;;;2098382;68;20182;-71
2021/12/18 07:48:55;;;;;;;7.85;4.00;;;8.40;99.90;;;;;;2103862;68;20377;-70
2021/12/18 07:51:38;;;;;;;6.38;3.75;;;8.40;99.90;;;;;;2117407;67;20296;-71
2021/12/18 07:54:22;;;;;;;11.50;4.57;;;8.50;99.90;;;;;;2118273;67;20445;-71
2021/12/18 07:57:05;;;;;;;9.68;3.90;;;8.40;99.90;;;;;;2125078;67;20199;-71
2021/12/18 07:59:47;;;;;;;8.60;4.72;;;8.40;99.90;;;;;;2132119;67;20606;-71
2021/12/18 08:02:29;;;;;;;11.60;3.72;;;8.40;99.90;;;;;;2135001;67;20838;-71
2021/12/18 08:05:11;;;;;;;11.98;3.90;;;8.50;99.90;;;;;;2110522;67;20206;-71
2021/12/18 08:07:52;;;;;;;11.23;3.58;;;8.40;99.90;;;;;;2117557;67;20255;-71
2021/12/18 08:10:35;;;;;;;9.27;3.95;;;8.50;99.90;;;;;;2123887;67;21075;-72
2021/12/18 08:13:17;;;;;;;12.95;3.22;;;8.50;99.90;;;;;;2114951;67;20270;-70
2021/12/18 08:15:59;;;;;;;6.50;3.08;;;8.50;99.90;;;;;;2119208;67;20230;-71
2021/12/18 08:18:40;;;;;;;8.80;3.45;;;8.50;99.90;;;;;;2124824;67;20210;-71
2021/12/18 08:21:22;;;;;;;8.60;2.85;;;8.50;99.90;;;;;;2132138;67;20309;-70
2021/12/18 08:24:05;;;;;;;6.93;2.70;;;8.60;99.90;;;;;;2124777;67;20249;-71
2021/12/18 08:26:47;;;;;;;7.82;2.97;;;8.50;99.90;;;;;;2131587;67;20337;-70
2021/12/18 08:29:29;;;;;;;5.38;2.60;;;8.80;99.90;;;;;;2139053;67;20294;-70
2021/12/18 08:32:12;;;;;;;4.70;2.20;;;8.50;99.90;;;;;;2139040;66;20738;-71
2021/12/18 08:34:57;;;;;;;8.25;2.92;;;8.80;99.90;;;;;;2131716;67;20293;-71
2021/12/18 08:37:40;;;;;;;4.78;3.03;;;8.40;99.90;;;;;;2124755;67;20407;-71
2021/12/18 08:40:25;;;;;;;3.85;1.77;;;8.60;99.90;;;;;;2117481;67;20283;-72
2021/12/18 08:43:10;;;;;;;4.07;2.58;;;8.60;99.90;;;;;;2124595;67;20211;-71
2021/12/18 08:45:54;;;;;;;9.57;2.47;;;8.60;99.90;;;;;;2124575;67;20336;-71
2021/12/18 08:48:37;;;;;;;6.20;1.80;;;8.60;99.90;;;;;;2124512;67;20222;-71
2021/12/18 08:51:21;;;;;;;4.18;2.50;;;8.60;99.90;;;;;;2119911;67;20416;-71
2021/12/18 08:54:05;;;;;;;5.43;2.83;;;8.70;99.90;;;;;;2117548;67;20636;-70
2021/12/18 08:56:49;;;;;;;4.47;2.58;;;8.70;99.90;;;;;;2123766;67;20346;-71
2021/12/18 08:59:32;;;;;;;6.45;2.15;;;8.70;99.90;;;;;;2124453;67;20184;-72
2021/12/18 09:02:15;;;;;;;7.70;2.90;;;8.70;99.90;;;;;;2116169;67;20871;-70
2021/12/18 09:05:00;;;;;;;8.07;1.77;;;8.70;99.90;;;;;;2125147;67;20180;-71
2021/12/18 09:07:42;;;;;;;8.52;2.35;;;8.80;99.90;;;;;;2145715;66;20241;-73
2021/12/18 09:10:27;;;;;;;9.52;2.35;;;8.80;99.90;;;;;;2132519;67;20249;-71
2021/12/18 09:13:12;;;;;;;4.93;2.17;;;8.80;99.90;;;;;;2124093;67;20344;-71
2021/12/18 09:15:54;;;;;;;6.15;2.45;;;8.80;99.90;;;;;;2132104;67;20538;-71
2021/12/18 09:18:36;;;;;;;5.10;2.63;;;8.80;99.90;;;;;;2125322;67;20205;-71
2021/12/18 09:21:21;;;;;;;6.95;2.65;;;8.90;99.90;;;;;;2125258;67;20192;-71
2021/12/18 09:24:04;;;;;;;6.00;2.63;;;8.80;99.90;;;;;;2132548;67;20663;-71
2021/12/18 09:26:46;;;;;;;6.97;2.70;;;8.90;99.90;;;;;;2132590;67;20250;-71
2021/12/18 09:29:28;;;;;;;8.48;2.90;;;8.90;99.90;;;;;;2132738;67;20250;-71
2021/12/18 09:32:10;;;;;;;5.53;3.05;;;8.90;99.90;;;;;;2126800;67;20268;-71
2021/12/18 09:35:00;;;;;;;11.43;3.33;;;8.90;99.90;;;;;;2119233;67;20338;-72
2021/12/18 09:37:45;;;;;;;6.60;3.40;;;8.90;99.90;;;;;;2118210;67;20209;-71
2021/12/18 09:40:29;;;;;;;9.05;3.60;;;8.90;99.90;;;;;;2131498;67;20299;-71
2021/12/18 09:43:13;;;;;;;8.43;4.00;;;9.00;99.90;;;;;;2118560;67;20181;-71
2021/12/18 09:46:05;;;;;;;10.10;3.92;;;8.90;99.90;;;;;;2112309;67;20229;-71
2021/12/18 09:48:46;;;;;;;5.53;3.55;;;9.00;99.90;;;;;;2122482;67;20256;-71
2021/12/18 09:51:35;;;;;;;9.00;4.45;;;8.90;99.90;;;;;;2127122;67;20192;-72
2021/12/18 09:54:19;;;;;;;13.32;3.72;;;8.90;99.90;;;;;;2119318;67;20240;-71
2021/12/18 09:57:09;;;;;;;6.72;3.97;;;9.40;99.90;;;;;;2117440;67;20193;-72
2021/12/18 09:59:51;;;;;;;7.78;3.08;;;9.00;99.90;;;;;;2121367;67;20225;-71
2021/12/18 10:02:33;;;;;;;6.35;3.28;;;9.00;99.90;;;;;;2114211;67;20626;-71
2021/12/18 10:05:24;;;;;;;6.75;2.85;;;9.20;99.90;;;;;;2121219;67;20410;-70
2021/12/18 10:08:19;;;;;;;6.47;3.00;;;9.00;99.90;;;;;;2112929;67;20246;-71
2021/12/18 10:11:07;;;;;;;9.23;3.55;;;9.10;99.90;;;;;;2126493;67;20184;-72
2021/12/18 10:14:06;;;;;;;7.72;3.50;;;9.10;99.90;;;;;;2117756;67;21188;-72
2021/12/18 10:16:52;;;;;;;5.05;2.97;;;9.10;99.90;;;;;;2113315;67;20172;-72
2021/12/18 10:19:38;;;;;;;6.30;2.78;;;9.20;99.90;;;;;;2123034;67;20366;-72
2021/12/18 10:22:20;;;;;;;10.55;3.50;;;9.10;99.90;;;;;;2121551;67;20670;-72
2021/12/18 10:25:07;;;;;;;8.25;3.53;;;9.20;99.90;;;;;;2119253;67;20198;-71
2021/12/18 10:28:21;;;;;;;5.93;3.72;;;9.20;99.90;;;;;;2116098;67;20369;-71
2021/12/18 10:31:17;;;;;;;6.30;3.58;;;9.20;99.90;;;;;;2124373;67;20248;-72
2021/12/18 10:34:33;;;;;;;8.38;3.83;;;9.20;99.90;;;;;;2125397;67;20416;-71
2021/12/18 10:37:28;;;;;;;13.18;4.70;;;9.20;99.90;;;;;;2115640;67;20934;-72
2021/12/18 10:40:15;;;;;;;7.40;3.67;;;9.20;99.90;;;;;;2103745;67;20603;-70
2021/12/18 10:43:08;;;;;;;9.32;3.78;;;9.30;99.90;;;;;;2102857;68;20536;-70
2021/12/18 10:46:01;;;;;;;5.57;3.03;;;9.30;99.90;;;;;;2103386;68;20297;-71
2021/12/18 10:49:02;;;;;;;9.75;3.10;;;9.40;99.90;;;;;;2109234;67;20695;-71
2021/12/18 10:51:45;;;;;;;7.00;3.13;;;9.30;99.90;;;;;;2106743;67;20274;-71
2021/12/18 10:54:27;;;;;;;7.78;3.42;;;9.40;99.90;;;;;;2096077;68;20354;-70
2021/12/18 10:57:22;;;;;;;7.85;3.10;;;9.40;99.90;;;;;;2092882;68;20191;-70
2021/12/18 11:00:06;;;;;;;7.88;2.80;;;9.40;99.90;;;;;;2105147;67;20310;-70
2021/12/18 11:02:52;;;;;;;9.77;2.80;;;9.40;99.90;;;;;;2116112;67;20897;-70
2021/12/18 11:05:37;;;;;;;8.80;3.63;;;9.50;99.90;;;;;;2104929;67;20857;-70
2021/12/18 11:08:20;;;;;;;4.82;2.47;;;9.50;99.90;;;;;;2101881;67;20234;-69
2021/12/18 11:14:13;;;;;;;8.43;3.45;;;9.50;99.90;;;;;;2079579;68;20340;-70
2021/12/18 11:16:59;;;;;;;9.88;3.35;;;9.50;99.90;;;;;;2083039;68;20199;-70
2021/12/18 11:19:43;;;;;;;7.95;2.90;;;9.50;99.90;;;;;;2096092;68;20246;-70
2021/12/18 11:22:25;;;;;;;6.70;2.83;;;10.00;99.90;;;;;;2094477;68;20692;-70
2021/12/18 11:25:11;;;;;;;8.82;3.15;;;9.50;99.90;;;;;;2077429;68;20620;-71
2021/12/18 11:27:58;;;;;;;9.05;2.92;;;9.50;99.90;;;;;;2078021;68;20300;-71
2021/12/18 11:30:54;;;;;;;6.88;2.47;;;9.50;99.90;;;;;;2081339;68;20220;-70
2021/12/18 11:33:34;;;;;;;7.32;2.65;;;9.60;99.90;;;;;;2079413;68;20295;-70
2021/12/18 11:36:16;;;;;;;9.32;2.63;;;9.60;99.90;;;;;;2090595;68;20286;-71
2021/12/18 11:39:00;;;;;;;9.77;2.75;;;9.60;99.90;;;;;;2099698;67;20200;-70
2021/12/18 11:41:43;;;;;;;4.18;2.17;;;9.70;99.90;;;;;;2111078;67;20208;-69
2021/12/18 11:44:54;;;;;;;7.25;2.70;;;9.70;99.90;;;;;;2104994;67;20402;-71
2021/12/18 11:48:01;;;;;;;9.55;3.40;;;9.80;99.90;;;;;;2104623;67;20290;-70
2021/12/18 11:50:48;;;;;;;8.38;2.67;;;9.80;99.90;;;;;;2100278;67;20253;-70
2021/12/18 11:53:39;;;;;;;3.70;2.20;;;9.80;99.90;;;;;;2103553;67;20403;-70
2021/12/18 11:56:23;;;;;;;5.57;3.42;;;9.80;99.90;;;;;;2106942;67;20200;-70
2021/12/18 11:59:08;;;;;;;9.05;2.72;;;9.80;99.90;;;;;;2114748;67;20346;-70
2021/12/18 12:01:51;;;;;;;7.45;2.90;;;9.80;99.90;;;;;;2123562;67;20372;-71
2021/12/18 12:05:00;;;;;;;6.97;3.03;;;9.90;99.90;;;;;;2131465;67;20871;-71
2021/12/18 12:07:50;;;;;;;;;;;9.90;99.90;;;;;;2126166;67;20416;-71
2021/12/18 12:10:48;;;;;;;8.77;3.10;;;9.80;99.90;;;;;;2117677;67;20052;-70
2021/12/18 12:14:03;;;;;;;6.73;2.97;;;9.90;99.90;;;;;;2109950;67;20305;-72
2021/12/18 12:16:47;;;;;;;7.97;2.95;;;9.80;99.90;;;;;;2106989;67;20406;-71
2021/12/18 12:19:34;;;;;;;10.48;3.10;;;9.90;99.90;;;;;;2105930;67;20439;-72
2021/12/18 12:22:53;;;;;;;10.90;3.13;;;9.80;99.90;;;;;;2116957;67;20206;-72
2021/12/18 12:25:38;;;;;;;7.28;2.70;;;9.80;99.90;;;;;;2110320;67;20215;-71
2021/12/18 12:28:54;;;;;;;8.38;3.38;;;9.90;99.90;;;;;;2118053;67;20169;-72
2021/12/18 12:32:00;;;;;;;8.27;3.03;;;9.80;99.90;;;;;;2119113;67;20457;-71
2021/12/18 12:34:45;;;;;;;8.85;3.65;;;9.80;99.90;;;;;;2120674;67;20304;-70
2021/12/18 12:37:46;;;;;;;8.75;3.10;;;9.80;99.90;;;;;;2126021;67;20327;-72
2021/12/18 12:40:31;;;;;;;8.75;3.05;;;9.80;99.90;;;;;;2131059;67;20752;-71
2021/12/18 12:43:22;;;;;;;8.60;3.27;;;9.80;99.90;;;;;;2131609;67;20266;-71
2021/12/18 12:46:16;;;;;;;7.07;2.90;;;9.70;99.90;;;;;;2131707;67;20362;-72
2021/12/18 12:49:00;;;;;;;8.15;3.97;;;9.70;99.90;;;;;;2131333;67;20371;-72
2021/12/18 12:52:08;;;;;;;5.60;2.45;;;9.70;99.90;;;;;;2126044;67;20590;-71
2021/12/18 12:55:02;;;;;;;10.15;3.13;;;9.70;99.90;;;;;;2132926;67;20305;-71
2021/12/18 12:57:50;;;;;;;9.80;3.13;;;9.70;99.90;;;;;;2118631;67;20361;-71
2021/12/18 13:00:37;;;;;;;10.07;3.20;;;9.70;99.90;;;;;;2116983;67;20198;-72
2021/12/18 13:03:23;;;;;;;7.60;3.95;;;9.70;99.90;;;;;;2100103;67;20335;-72
2021/12/18 13:06:10;;;;;;;6.45;2.42;;;9.60;99.90;;;;;;2126821;67;20314;-71
2021/12/18 13:08:51;;;;;;;9.52;3.60;;;9.60;99.90;;;;;;2123932;67;20348;-70
2021/12/18 13:11:34;;;;;;;6.80;2.90;;;9.60;99.90;;;;;;2118545;67;20313;-72
2021/12/18 13:14:16;;;;;;;7.03;2.42;;;9.60;99.90;;;;;;2132009;67;20254;-72
2021/12/18 13:16:59;;;;;;;11.30;2.80;;;9.70;99.90;;;;;;2122832;67;20363;-71
2021/12/18 13:20:19;;;;;;;7.18;2.70;;;9.60;99.90;;;;;;2125704;67;20445;-72
2021/12/18 13:23:01;;;;;;;9.20;2.85;;;9.60;99.90;;;;;;2124935;67;20771;-70
2021/12/18 13:25:53;;;;;;;6.05;2.42;;;9.50;99.90;;;;;;2127211;67;20269;-72
2021/12/18 13:28:35;;;;;;;7.13;2.80;;;9.60;99.90;;;;;;2124961;67;20176;-71
2021/12/18 13:31:22;;;;;;;7.55;2.67;;;9.50;99.90;;;;;;2132832;67;20248;-72
2021/12/18 13:34:41;;;;;;;7.18;2.80;;;9.50;99.90;;;;;;2137731;66;20199;-71
2021/12/18 13:37:35;;;;;;;5.40;2.90;;;9.50;99.90;;;;;;2118302;67;20181;-72
2021/12/18 13:40:16;;;;;;;10.40;2.78;;;9.40;99.90;;;;;;2117492;67;20180;-73
2021/12/18 13:42:45;;;;;;;8.73;2.38;;;9.60;99.90;;;;;;2119353;67;20699;-71
2021/12/18 13:45:17;;;;;;;6.47;2.47;;;9.70;99.90;;;;;;2121261;67;20649;-71
2021/12/18 13:47:50;;;;;;;8.82;2.55;;;9.50;99.90;;;;;;2115812;67;20334;-70
2021/12/18 13:50:41;;;;;;;8.50;2.92;;;9.50;99.90;;;;;;2118238;67;20198;-72
2021/12/18 13:53:20;;;;;;;8.50;3.08;;;9.40;99.90;;;;;;2121728;67;20236;-71
2021/12/18 13:56:13;;;;;;;7.82;1.80;;;9.40;99.90;;;;;;2122893;67;20285;-72
2021/12/18 13:59:22;;;;;;;6.95;2.28;;;9.50;99.90;;;;;;2142624;66;20593;-72
2021/12/18 14:02:13;;;;;;;7.15;2.33;;;9.40;99.90;;;;;;2162840;65;20582;-72
2021/12/18 14:05:13;;;;;;;5.95;2.45;;;9.50;99.90;;;;;;2179546;65;20175;-71
2021/12/18 14:07:56;;;;;;;4.75;2.13;;;9.30;99.90;;;;;;2194867;64;20256;-72
2021/12/18 14:10:37;;;;;;;3.60;2.17;;;9.30;99.90;;;;;;2209439;64;20169;-74
2021/12/18 14:13:16;;;;;;;7.68;3.00;;;9.30;99.90;;;;;;2212472;64;20240;-72
2021/12/18 14:16:05;;;;;;;6.97;2.85;;;9.30;99.90;;;;;;2218110;64;20196;-72
2021/12/18 14:18:49;;;;;;;8.23;2.85;;;9.30;99.90;;;;;;2217529;64;20217;-72
2021/12/18 14:21:45;;;;;;;3.47;2.35;;;9.30;99.90;;;;;;2219367;64;20562;-71
2021/12/18 14:24:24;;;;;;;7.65;2.70;;;9.30;99.90;;;;;;2239466;63;20165;-72
2021/12/18 14:27:25;;;;;;;7.70;2.47;;;9.30;99.90;;;;;;2245036;63;20178;-72
2021/12/18 14:30:15;;;;;;;4.68;2.53;;;9.30;99.90;;;;;;2243897;63;20173;-71
2021/12/18 14:33:04;;;;;;;5.50;2.83;;;9.20;99.90;;;;;;2243063;63;20266;-73
2021/12/18 14:35:59;;;;;;;19.07;3.40;;;9.60;99.90;;;;;;2221437;64;20753;-72
2021/12/18 14:38:37;;;;;;;7.50;2.47;;;9.20;99.90;;;;;;2222171;64;20248;-72
2021/12/18 14:41:26;;;;;;;6.00;2.35;;;9.20;99.90;;;;;;2221118;64;20703;-72
2021/12/18 14:44:12;;;;;;;;;;;9.20;99.90;;;;;;2205717;64;20348;-71
2021/12/18 14:47:19;;;;;;;9.20;2.65;;;9.10;99.90;;;;;;2190882;65;20061;-72
2021/12/18 14:50:11;;;;;;;6.22;2.42;;;9.10;99.90;;;;;;2175542;65;20822;-73
2021/12/18 14:53:16;;;;;;;10.55;3.05;;;9.10;99.90;;;;;;2161245;66;20239;-72
2021/12/18 14:56:00;;;;;;;3.78;2.25;;;9.10;99.90;;;;;;2152587;66;20385;-72
2021/12/18 14:58:43;;;;;;;9.23;3.72;;;9.10;99.90;;;;;;2152166;66;20792;-72
2021/12/18 15:01:26;;;;;;;7.90;4.05;;;9.00;99.90;;;;;;2145952;66;20244;-71
2021/12/18 15:04:18;;;;;;;;;;;9.00;99.90;;;;;;2139098;66;20441;-72
2021/12/18 15:07:00;;;;;;;8.77;3.58;;;9.00;99.90;;;;;;2131656;67;20213;-71
2021/12/18 15:10:06;;;;;;;8.57;3.72;;;9.00;99.90;;;;;;1900546;67;15098704;-72
2021/12/18 15:12:47;;;;;;;6.05;2.97;;;9.00;99.90;;;;;;2110592;67;21484;-72
2021/12/18 15:15:33;;;;;;;11.33;3.70;;;9.00;99.90;;;;;;2102877;67;20265;-71
2021/12/18 15:18:15;;;;;;;7.35;3.15;;;9.00;99.90;;;;;;2098373;67;20598;-71